Time;durP1;ratioP1;P1;durP2;ratioP2;P2;SDS_P1;SDS_P2;PMS_P1;PMS_P2;Temp;Humidity;BMP_temperature;BMP_pressure;BME280_temperature;BME280_humidity;BME280_pressure;Samples;Min_cycle;Max_cycle;Signal;HPM_P1;HPM_P2
2021/07/11 00:01:26;;;;;;;8.63;2.50;;;19.50;93.10;;;;;;5054331;28;20475;-85
2021/07/11 00:03:52;;;;;;;2.93;2.13;;;19.30;94.00;;;;;;5053975;28;20422;-85
2021/07/11 00:06:17;;;;;;;10.07;2.80;;;19.30;94.90;;;;;;5060952;28;20183;-85
2021/07/11 00:08:43;;;;;;;3.57;2.10;;;19.20;94.60;;;;;;5054494;28;20413;-85
2021/07/11 00:11:09;;;;;;;5.53;3.10;;;19.20;95.40;;;;;;5054848;28;20180;-85
2021/07/11 00:13:35;;;;;;;4.17;2.23;;;19.10;95.40;;;;;;5054900;28;20184;-85
2021/07/11 00:16:00;;;;;;;5.20;3.07;;;19.10;95.50;;;;;;5054776;28;20173;-85
2021/07/11 00:18:26;;;;;;;6.77;2.73;;;19.10;96.00;;;;;;5054464;28;20184;-85
2021/07/11 00:20:52;;;;;;;6.20;2.20;;;19.00;96.90;;;;;;5054849;28;20173;-85
2021/07/11 00:23:19;;;;;;;3.80;2.30;;;19.00;96.80;;;;;;5054146;28;20284;-85
2021/07/11 00:25:44;;;;;;;3.88;2.40;;;19.00;96.90;;;;;;5054676;28;20177;-85
2021/07/11 00:28:10;;;;;;;5.57;2.80;;;18.90;96.70;;;;;;5053978;28;20208;-85
2021/07/11 00:30:36;;;;;;;2.93;2.40;;;18.90;97.00;;;;;;5053906;28;20252;-85
2021/07/11 00:33:02;;;;;;;6.40;2.40;;;18.80;97.40;;;;;;5053946;28;20196;-85
2021/07/11 00:35:27;;;;;;;4.30;2.53;;;18.90;96.70;;;;;;5053903;28;20405;-85
2021/07/11 00:37:53;;;;;;;6.63;2.90;;;18.80;97.10;;;;;;5053803;28;20419;-85
2021/07/11 00:40:20;;;;;;;4.93;2.20;;;18.80;97.60;;;;;;5053426;28;20181;-85
2021/07/11 00:42:46;;;;;;;4.45;2.65;;;18.70;97.50;;;;;;5053516;28;20827;-85
2021/07/11 00:45:12;;;;;;;4.10;2.70;;;18.70;98.00;;;;;;5053502;28;20287;-85
2021/07/11 00:47:39;;;;;;;3.53;2.50;;;18.60;97.80;;;;;;5053610;28;20505;-85
2021/07/11 00:50:12;;;;;;;4.90;2.30;;;18.50;98.30;;;;;;5053675;28;20590;-85
2021/07/11 00:52:39;;;;;;;4.18;2.70;;;18.50;97.90;;;;;;5054174;28;20853;-85
2021/07/11 00:55:06;;;;;;;6.95;2.47;;;18.50;98.40;;;;;;5053808;28;20197;-85
2021/07/11 00:57:32;;;;;;;5.70;2.40;;;18.50;98.30;;;;;;5054351;28;20720;-85
2021/07/11 00:59:58;;;;;;;4.85;2.42;;;18.50;97.80;;;;;;5053872;28;20180;-84
2021/07/11 01:02:56;;;;;;;3.17;1.80;;;18.50;98.00;;;;;;5054017;28;20201;-84
2021/07/11 01:05:25;;;;;;;3.33;2.25;;;18.40;98.00;;;;;;5054719;28;20487;-84
2021/07/11 01:08:07;;;;;;;3.25;2.33;;;18.40;97.80;;;;;;5053376;28;20285;-84
2021/07/11 01:10:47;;;;;;;3.45;2.60;;;18.40;97.50;;;;;;5053266;28;20165;-84
2021/07/11 01:13:19;;;;;;;5.90;3.00;;;18.40;97.80;;;;;;5053423;28;20199;-84
2021/07/11 01:15:47;;;;;;;5.82;2.80;;;18.40;97.70;;;;;;5053379;28;20584;-84
2021/07/11 01:18:16;;;;;;;2.95;2.25;;;18.40;97.80;;;;;;5053957;28;20177;-84
2021/07/11 01:20:47;;;;;;;2.90;2.05;;;18.40;97.70;;;;;;5053750;28;20264;-84
2021/07/11 01:23:34;;;;;;;11.45;2.38;;;18.40;98.20;;;;;;5053748;28;20205;-84
2021/07/11 01:26:02;;;;;;;4.13;2.67;;;18.40;97.00;;;;;;5053988;28;20176;-85
2021/07/11 01:28:28;;;;;;;5.07;2.38;;;18.40;97.40;;;;;;5054617;28;20641;-85
2021/07/11 01:30:55;;;;;;;2.95;2.13;;;18.40;97.60;;;;;;5060509;28;20196;-84
2021/07/11 01:33:24;;;;;;;4.43;2.03;;;18.40;97.40;;;;;;5060836;28;20329;-84
2021/07/11 01:35:50;;;;;;;3.38;2.30;;;18.40;97.30;;;;;;5060414;28;20641;-84
2021/07/11 01:38:17;;;;;;;3.88;2.20;;;18.30;97.40;;;;;;5060667;28;20169;-85
2021/07/11 01:40:44;;;;;;;3.03;2.25;;;18.30;97.60;;;;;;5060150;28;20169;-84
2021/07/11 01:43:11;;;;;;;7.78;2.20;;;18.30;97.50;;;;;;5060020;28;20680;-85
2021/07/11 01:45:37;;;;;;;6.05;2.30;;;18.30;97.10;;;;;;5060295;28;20183;-85
2021/07/11 01:48:05;;;;;;;7.82;2.53;;;18.30;97.40;;;;;;5059867;28;20288;-84
2021/07/11 01:50:32;;;;;;;3.38;2.05;;;18.30;97.30;;;;;;5059570;28;20203;-85
2021/07/11 01:52:57;;;;;;;4.13;2.25;;;18.30;98.00;;;;;;5060647;28;20185;-84
2021/07/11 01:55:26;;;;;;;3.67;2.50;;;18.30;97.50;;;;;;5060004;28;20683;-84
2021/07/11 01:57:52;;;;;;;4.40;2.35;;;18.20;98.10;;;;;;5060173;28;20427;-84
2021/07/11 02:00:19;;;;;;;3.80;2.53;;;18.20;97.70;;;;;;5060455;28;20225;-84
2021/07/11 02:02:49;;;;;;;4.38;2.58;;;18.20;97.80;;;;;;5059999;28;20806;-85
2021/07/11 02:05:16;;;;;;;3.22;2.15;;;18.20;97.80;;;;;;5060144;28;20177;-84
2021/07/11 02:07:42;;;;;;;2.88;1.60;;;18.30;97.20;;;;;;5060015;28;20201;-84
2021/07/11 02:10:12;;;;;;;4.45;2.40;;;18.30;97.40;;;;;;5060215;28;20173;-84
2021/07/11 02:13:01;;;;;;;4.38;2.35;;;18.30;97.20;;;;;;5059719;28;20672;-84
2021/07/11 02:15:29;;;;;;;5.35;2.58;;;18.30;97.70;;;;;;5059890;28;20247;-84
2021/07/11 02:17:57;;;;;;;4.97;2.30;;;18.30;97.10;;;;;;5059722;28;20590;-84
2021/07/11 02:20:25;;;;;;;3.90;2.47;;;18.40;97.50;;;;;;5059560;28;20264;-84
2021/07/11 02:22:53;;;;;;;2.55;2.17;;;18.40;96.80;;;;;;5059629;28;20284;-84
2021/07/11 02:25:20;;;;;;;4.22;2.40;;;18.40;96.90;;;;;;5059563;28;20514;-85
2021/07/11 02:27:49;;;;;;;2.78;1.98;;;18.40;96.80;;;;;;5059508;28;20669;-84
2021/07/11 02:30:17;;;;;;;3.35;2.17;;;18.40;96.50;;;;;;5059752;28;20165;-85
2021/07/11 02:32:51;;;;;;;3.15;2.10;;;18.40;96.40;;;;;;5059482;28;20652;-85
2021/07/11 02:35:21;;;;;;;4.38;2.30;;;18.40;96.30;;;;;;5059162;28;20295;-84
2021/07/11 02:37:49;;;;;;;4.25;2.85;;;18.40;96.70;;;;;;5058923;28;20169;-85
2021/07/11 02:40:16;;;;;;;23.98;3.00;;;18.40;96.90;;;;;;5058210;28;20169;-84
2021/07/11 02:42:44;;;;;;;3.95;2.30;;;18.30;97.10;;;;;;5055651;28;20217;-85
2021/07/11 02:45:11;;;;;;;6.30;3.30;;;18.30;97.40;;;;;;5055520;28;20663;-84
2021/07/11 02:47:45;;;;;;;6.55;3.58;;;18.10;97.60;;;;;;5055632;28;20204;-84
2021/07/11 02:50:14;;;;;;;3.50;2.15;;;18.10;97.70;;;;;;5055811;28;20235;-85
2021/07/11 02:52:42;;;;;;;5.47;2.35;;;18.10;98.00;;;;;;5055608;28;20192;-85
2021/07/11 02:55:21;;;;;;;3.53;2.40;;;18.10;98.00;;;;;;5055124;28;20178;-85
2021/07/11 02:58:04;;;;;;;5.90;3.40;;;18.10;97.60;;;;;;5055093;28;20250;-83
2021/07/11 03:00:29;;;;;;;5.22;2.28;;;18.10;98.00;;;;;;5055850;28;20173;-83
2021/07/11 03:02:57;;;;;;;4.00;2.20;;;18.00;97.80;;;;;;5055473;28;20193;-83
2021/07/11 03:05:24;;;;;;;3.47;2.55;;;18.00;98.10;;;;;;5055297;28;20412;-84
2021/07/11 03:07:50;;;;;;;2.88;2.08;;;18.00;98.10;;;;;;5055148;28;20197;-84
2021/07/11 03:10:17;;;;;;;5.00;2.50;;;18.00;97.90;;;;;;5055919;28;20174;-84
2021/07/11 03:12:46;;;;;;;3.10;2.30;;;18.00;98.00;;;;;;5055038;28;20189;-84
2021/07/11 03:15:12;;;;;;;4.65;2.55;;;18.10;97.90;;;;;;5054920;28;20710;-84
2021/07/11 03:17:40;;;;;;;5.20;2.20;;;18.10;97.80;;;;;;5054776;28;20648;-84
2021/07/11 03:20:06;;;;;;;3.55;1.67;;;18.00;97.20;;;;;;5054826;28;20586;-84
2021/07/11 03:22:36;;;;;;;3.35;2.28;;;18.00;97.90;;;;;;5054752;28;20219;-84
2021/07/11 03:25:05;;;;;;;9.18;2.80;;;18.00;97.90;;;;;;5054804;28;20184;-84
2021/07/11 03:27:31;;;;;;;4.60;2.17;;;18.10;98.10;;;;;;5054732;28;20542;-84
2021/07/11 03:30:04;;;;;;;4.53;2.50;;;18.00;97.90;;;;;;5055097;28;20169;-84
2021/07/11 03:32:41;;;;;;;4.28;2.50;;;18.00;97.80;;;;;;5054917;28;20947;-84
2021/07/11 03:35:11;;;;;;;3.38;2.60;;;18.00;98.10;;;;;;5055052;28;20187;-84
2021/07/11 03:37:44;;;;;;;6.28;2.80;;;18.00;98.50;;;;;;5054800;28;20214;-84
2021/07/11 03:40:11;;;;;;;5.85;2.45;;;18.00;98.20;;;;;;5054762;28;20688;-84
2021/07/11 03:42:41;;;;;;;3.83;2.30;;;18.00;98.30;;;;;;5054178;28;20341;-84
2021/07/11 03:45:09;;;;;;;3.45;2.17;;;18.00;98.50;;;;;;5054347;28;20181;-84
2021/07/11 03:48:03;;;;;;;5.13;2.50;;;18.00;98.20;;;;;;5054865;28;20685;-84
2021/07/11 03:50:28;;;;;;;5.45;2.70;;;18.00;98.50;;;;;;5054491;28;20662;-84
2021/07/11 03:52:59;;;;;;;3.60;2.60;;;18.10;98.10;;;;;;5053783;28;20200;-84
2021/07/11 03:55:26;;;;;;;6.68;2.47;;;18.10;98.20;;;;;;5054339;28;20189;-84
2021/07/11 03:57:53;;;;;;;2.60;2.20;;;18.00;98.30;;;;;;5055030;28;20819;-84
2021/07/11 04:00:20;;;;;;;6.25;2.70;;;18.00;98.50;;;;;;5054220;28;20548;-84
2021/07/11 04:02:49;;;;;;;3.55;2.25;;;18.10;98.10;;;;;;5054160;28;20220;-84
2021/07/11 04:05:18;;;;;;;6.25;2.40;;;18.10;98.20;;;;;;5053848;28;20228;-84
2021/07/11 04:07:45;;;;;;;4.30;2.75;;;18.10;98.10;;;;;;5053840;28;20239;-84
2021/07/11 04:10:12;;;;;;;7.78;2.50;;;18.10;98.10;;;;;;5053992;28;20219;-84
2021/07/11 04:12:38;;;;;;;6.00;2.45;;;18.10;98.20;;;;;;5053617;28;20189;-84
2021/07/11 04:15:05;;;;;;;3.40;2.40;;;18.10;98.00;;;;;;5053461;28;20267;-84
2021/07/11 04:17:32;;;;;;;3.40;2.50;;;18.10;98.00;;;;;;5053455;28;20424;-84
2021/07/11 04:20:00;;;;;;;6.15;3.08;;;18.10;98.30;;;;;;5053807;28;20172;-84
2021/07/11 04:22:27;;;;;;;4.55;2.70;;;18.10;97.80;;;;;;5054273;28;20670;-84
2021/07/11 04:24:54;;;;;;;2.75;1.90;;;18.10;98.10;;;;;;5053365;28;20173;-83
2021/07/11 04:27:21;;;;;;;6.85;2.50;;;18.10;98.20;;;;;;5054504;28;20196;-83
2021/07/11 04:29:50;;;;;;;4.35;2.85;;;18.10;98.20;;;;;;5055411;28;20165;-83
2021/07/11 04:32:17;;;;;;;3.58;2.75;;;18.10;98.00;;;;;;5054127;28;20685;-84
2021/07/11 04:34:43;;;;;;;3.60;1.77;;;18.10;98.10;;;;;;5053420;28;20176;-86
2021/07/11 04:37:11;;;;;;;4.55;2.33;;;18.20;97.70;;;;;;5053859;28;20177;-87
2021/07/11 04:39:38;;;;;;;3.33;2.70;;;18.20;98.00;;;;;;5053067;28;20199;-86
2021/07/11 04:42:04;;;;;;;3.80;2.72;;;18.20;98.30;;;;;;5052930;28;20208;-88
2021/07/11 04:44:31;;;;;;;4.90;2.63;;;18.20;98.20;;;;;;5053105;28;20676;-87
2021/07/11 04:46:57;;;;;;;3.80;2.55;;;18.30;97.90;;;;;;5052919;28;20197;-87
2021/07/11 04:49:24;;;;;;;4.15;2.15;;;18.30;98.00;;;;;;5052930;28;20178;-88
2021/07/11 04:51:55;;;;;;;6.50;3.10;;;18.40;97.20;;;;;;5053163;28;20278;-87
2021/07/11 04:54:21;;;;;;;5.05;2.38;;;18.40;97.20;;;;;;5053811;28;20226;-86
2021/07/11 04:56:47;;;;;;;4.60;2.53;;;18.50;97.30;;;;;;5053160;28;20177;-85
2021/07/11 04:59:12;;;;;;;8.50;2.25;;;18.50;97.20;;;;;;5052880;28;20416;-85
2021/07/11 05:01:38;;;;;;;3.50;2.20;;;18.40;97.20;;;;;;5053429;28;20574;-85
2021/07/11 05:04:04;;;;;;;3.43;2.40;;;18.40;96.80;;;;;;5053075;28;20169;-85
2021/07/11 05:06:30;;;;;;;4.47;2.83;;;18.50;96.50;;;;;;5053314;28;20222;-85
2021/07/11 05:08:56;;;;;;;2.50;2.13;;;18.50;97.00;;;;;;5053407;28;20422;-85
2021/07/11 05:11:21;;;;;;;4.07;2.40;;;18.60;96.40;;;;;;5053334;28;20792;-85
2021/07/11 05:13:47;;;;;;;4.00;2.27;;;18.60;96.40;;;;;;5053357;28;20537;-85
2021/07/11 05:16:13;;;;;;;4.87;2.87;;;18.70;96.50;;;;;;5053513;28;20239;-85
2021/07/11 05:18:39;;;;;;;5.17;2.87;;;18.70;96.60;;;;;;5053533;28;20172;-85
2021/07/11 05:21:05;;;;;;;5.97;2.90;;;18.70;96.40;;;;;;5053197;28;20180;-85
2021/07/11 05:23:30;;;;;;;3.40;2.40;;;18.70;96.50;;;;;;5053328;28;20173;-85
2021/07/11 05:25:56;;;;;;;3.27;2.10;;;18.80;96.70;;;;;;5053214;28;20215;-85
2021/07/11 05:28:22;;;;;;;4.70;3.10;;;18.80;96.30;;;;;;5052981;28;20509;-85
2021/07/11 05:30:48;;;;;;;3.83;2.27;;;18.80;96.50;;;;;;5053509;28;20173;-85
2021/07/11 05:33:14;;;;;;;7.03;2.90;;;18.80;96.60;;;;;;5053353;28;20193;-85
2021/07/11 05:35:39;;;;;;;3.33;2.80;;;18.80;96.90;;;;;;5053029;28;20829;-85
2021/07/11 05:38:05;;;;;;;4.60;2.93;;;18.80;96.50;;;;;;5052938;28;20450;-85
2021/07/11 05:40:31;;;;;;;5.03;2.83;;;18.80;96.00;;;;;;5052714;28;20176;-85
2021/07/11 05:42:57;;;;;;;5.80;2.63;;;18.80;95.40;;;;;;5052940;28;20259;-85
2021/07/11 05:45:23;;;;;;;2.93;2.00;;;18.80;96.00;;;;;;5053059;28;20645;-85
2021/07/11 05:47:49;;;;;;;4.32;2.60;;;18.80;95.70;;;;;;5052988;28;21014;-85
2021/07/11 05:50:15;;;;;;;3.40;2.13;;;18.90;96.00;;;;;;5053491;28;20377;-85
2021/07/11 05:52:42;;;;;;;3.20;2.40;;;19.00;95.60;;;;;;5053043;28;20201;-85
2021/07/11 05:55:08;;;;;;;3.08;2.22;;;19.10;95.30;;;;;;5053549;28;20166;-85
2021/07/11 05:57:34;;;;;;;4.35;2.20;;;19.10;94.70;;;;;;5053365;28;20179;-85
2021/07/11 06:00:00;;;;;;;3.77;2.40;;;19.30;94.80;;;;;;5053183;28;20173;-85
2021/07/11 06:02:27;;;;;;;5.05;2.78;;;19.30;94.50;;;;;;5053131;28;20435;-86
2021/07/11 06:04:53;;;;;;;3.10;2.38;;;19.40;93.00;;;;;;5053117;28;20591;-85
2021/07/11 06:07:19;;;;;;;4.88;2.17;;;19.50;93.60;;;;;;5053043;28;20254;-85
2021/07/11 06:09:45;;;;;;;3.53;2.63;;;19.50;94.10;;;;;;5052893;28;20173;-85
2021/07/11 06:12:11;;;;;;;4.90;2.60;;;19.70;93.50;;;;;;5052616;28;20193;-85
2021/07/11 06:14:36;;;;;;;5.10;2.80;;;19.80;92.80;;;;;;5052660;28;20407;-85
2021/07/11 06:17:03;;;;;;;6.17;2.40;;;20.00;92.30;;;;;;5055473;28;20177;-86
2021/07/11 06:19:29;;;;;;;4.05;2.83;;;20.10;92.20;;;;;;5056175;28;20264;-85
2021/07/11 06:21:55;;;;;;;4.47;2.33;;;20.20;90.10;;;;;;5056013;28;20193;-87
2021/07/11 06:24:20;;;;;;;3.63;2.70;;;20.20;88.80;;;;;;5055952;28;20177;-86
2021/07/11 06:26:47;;;;;;;7.17;3.30;;;20.30;88.80;;;;;;5055256;28;20458;-86
2021/07/11 06:29:13;;;;;;;7.53;2.90;;;20.40;88.90;;;;;;5055062;28;20426;-87
2021/07/11 06:31:39;;;;;;;4.05;2.13;;;20.50;88.00;;;;;;5055254;28;20193;-86
2021/07/11 06:34:04;;;;;;;3.83;2.30;;;20.70;86.40;;;;;;5055398;28;20691;-86
2021/07/11 06:36:31;;;;;;;5.40;2.23;;;20.80;83.70;;;;;;5055511;28;20196;-85
2021/07/11 06:38:58;;;;;;;3.88;1.90;;;20.90;83.30;;;;;;5056050;28;20219;-85
2021/07/11 06:41:24;;;;;;;4.53;1.92;;;20.90;80.60;;;;;;5055222;28;20225;-85
2021/07/11 06:43:50;;;;;;;8.67;2.90;;;20.90;79.50;;;;;;5055772;28;20692;-85
2021/07/11 06:46:15;;;;;;;4.03;2.27;;;20.80;79.60;;;;;;5055559;28;20784;-84
2021/07/11 06:48:41;;;;;;;7.40;2.60;;;20.60;80.80;;;;;;5055598;28;20366;-85
2021/07/11 06:51:07;;;;;;;4.53;2.70;;;20.70;80.90;;;;;;5054635;28;20408;-85
2021/07/11 06:53:33;;;;;;;5.17;2.47;;;20.70;81.30;;;;;;5054930;28;20172;-86
2021/07/11 06:55:59;;;;;;;10.57;2.40;;;20.80;80.30;;;;;;5055221;28;20177;-86
2021/07/11 06:58:25;;;;;;;3.40;2.20;;;20.90;80.20;;;;;;5055424;28;20595;-85
2021/07/11 07:00:50;;;;;;;4.45;2.25;;;20.90;78.50;;;;;;5055125;28;20416;-85
2021/07/11 07:03:16;;;;;;;3.13;2.10;;;20.90;77.80;;;;;;5055088;28;20344;-86
2021/07/11 07:05:42;;;;;;;3.63;2.27;;;21.00;78.00;;;;;;5054879;28;20614;-86
2021/07/11 07:08:08;;;;;;;5.30;2.30;;;21.20;78.30;;;;;;5054280;28;20215;-85
2021/07/11 07:10:33;;;;;;;4.00;1.90;;;21.30;77.80;;;;;;5054913;28;20439;-85
2021/07/11 07:12:59;;;;;;;4.63;2.10;;;21.30;77.30;;;;;;5054407;28;20435;-86
2021/07/11 07:15:25;;;;;;;5.40;3.07;;;21.30;77.30;;;;;;5054565;28;20169;-85
2021/07/11 07:17:51;;;;;;;2.63;1.90;;;21.30;77.70;;;;;;5054846;28;20173;-86
2021/07/11 07:20:16;;;;;;;3.23;2.40;;;21.40;76.70;;;;;;5054341;28;20656;-85
2021/07/11 07:22:43;;;;;;;3.40;2.23;;;21.30;77.00;;;;;;5054230;28;20207;-86
2021/07/11 07:25:11;;;;;;;4.00;2.40;;;21.40;76.40;;;;;;5054403;28;20180;-84
2021/07/11 07:27:37;;;;;;;4.03;1.90;;;21.20;76.20;;;;;;5053873;28;20197;-86
2021/07/11 07:30:04;;;;;;;5.63;2.95;;;21.20;76.30;;;;;;5053970;28;20173;-85
2021/07/11 07:32:30;;;;;;;8.45;2.33;;;21.10;75.90;;;;;;5054078;28;20592;-85
2021/07/11 07:34:56;;;;;;;4.30;2.23;;;21.20;75.60;;;;;;5054205;28;20250;-85
2021/07/11 07:37:22;;;;;;;6.13;2.30;;;21.40;75.90;;;;;;5054002;28;20477;-85
2021/07/11 07:39:48;;;;;;;4.20;2.40;;;21.60;76.40;;;;;;5054623;28;20180;-85
2021/07/11 07:42:13;;;;;;;4.50;2.30;;;21.90;74.10;;;;;;5054063;28;20455;-85
2021/07/11 07:44:39;;;;;;;3.63;2.17;;;21.90;73.40;;;;;;5046752;28;20409;-85
2021/07/11 07:47:05;;;;;;;4.60;2.40;;;22.00;73.00;;;;;;5043648;28;20190;-85
2021/07/11 07:49:31;;;;;;;4.45;1.92;;;22.00;72.70;;;;;;5053519;28;20704;-85
2021/07/11 07:51:57;;;;;;;6.53;2.17;;;22.10;72.80;;;;;;5040288;28;20224;-85
2021/07/11 07:54:23;;;;;;;4.20;2.53;;;22.20;72.40;;;;;;5051344;28;20757;-86
2021/07/11 07:56:48;;;;;;;8.80;2.70;;;22.20;72.40;;;;;;5053578;28;20641;-86
2021/07/11 07:59:14;;;;;;;4.20;2.00;;;22.00;74.20;;;;;;5053403;28;20184;-86
2021/07/11 08:01:41;;;;;;;3.93;2.37;;;21.90;73.90;;;;;;5053255;28;20439;-86
2021/07/11 08:04:07;;;;;;;2.70;1.83;;;21.80;74.60;;;;;;5053356;28;20442;-86
2021/07/11 08:06:33;;;;;;;4.65;2.38;;;21.80;75.20;;;;;;5053305;28;20539;-86
2021/07/11 08:08:59;;;;;;;3.50;2.00;;;21.80;74.80;;;;;;5053524;28;20195;-87
2021/07/11 08:11:25;;;;;;;4.47;2.72;;;21.80;75.10;;;;;;5053419;28;20189;-86
2021/07/11 08:13:51;;;;;;;3.70;2.15;;;21.60;75.10;;;;;;5053561;28;20533;-86
2021/07/11 08:16:17;;;;;;;6.03;2.17;;;21.50;75.50;;;;;;5053211;28;20169;-86
2021/07/11 08:18:43;;;;;;;3.20;1.90;;;21.30;76.40;;;;;;5053635;28;20426;-85
2021/07/11 08:21:09;;;;;;;2.87;1.80;;;21.30;75.90;;;;;;5053462;28;20181;-86
2021/07/11 08:23:35;;;;;;;2.85;2.13;;;21.10;77.30;;;;;;5053248;28;20630;-86
2021/07/11 08:26:01;;;;;;;3.87;2.87;;;21.10;77.80;;;;;;5053317;28;20184;-86
2021/07/11 08:28:27;;;;;;;2.85;2.05;;;21.30;78.10;;;;;;5052943;28;20455;-86
2021/07/11 08:30:53;;;;;;;3.60;2.27;;;21.50;76.70;;;;;;5053198;28;20169;-86
2021/07/11 08:33:19;;;;;;;4.97;2.13;;;21.60;75.60;;;;;;5053327;28;20190;-86
2021/07/11 08:35:45;;;;;;;3.55;2.20;;;;;;;;;;5053070;28;20464;-86
2021/07/11 08:38:11;;;;;;;3.80;2.28;;;21.90;76.20;;;;;;5052836;28;20177;-86
2021/07/11 08:40:36;;;;;;;3.80;2.40;;;22.20;75.80;;;;;;5055912;28;20524;-86
2021/07/11 08:43:07;;;;;;;3.17;1.80;;;22.50;73.10;;;;;;5052729;28;20212;-86
2021/07/11 08:45:34;;;;;;;4.95;2.40;;;22.60;70.80;;;;;;5052534;28;20181;-86
2021/07/11 08:48:00;;;;;;;2.55;1.90;;;22.70;70.60;;;;;;5052252;28;20219;-86
2021/07/11 08:50:26;;;;;;;4.53;2.57;;;22.90;70.30;;;;;;5053087;28;20169;-86
2021/07/11 08:52:51;;;;;;;2.97;2.00;;;23.10;70.80;;;;;;5052651;28;20428;-86
2021/07/11 08:55:23;;;;;;;8.97;2.37;;;23.30;67.10;;;;;;5052574;28;20223;-86
2021/07/11 08:57:52;;;;;;;6.28;2.55;;;23.30;68.90;;;;;;5052902;28;20718;-86
2021/07/11 09:00:22;;;;;;;4.70;2.20;;;23.20;68.70;;;;;;5052604;28;20181;-86
2021/07/11 09:02:48;;;;;;;4.45;1.80;;;23.10;67.80;;;;;;5052726;28;20201;-86
2021/07/11 09:05:28;;;;;;;5.70;2.07;;;22.90;69.60;;;;;;5052787;28;20219;-85
2021/07/11 09:07:59;;;;;;;2.75;1.90;;;22.60;69.60;;;;;;5052160;28;20201;-85
2021/07/11 09:10:30;;;;;;;2.75;1.95;;;22.40;70.20;;;;;;5052274;28;20173;-85
2021/07/11 09:12:56;;;;;;;3.78;2.30;;;22.20;70.50;;;;;;5052618;28;20193;-85
2021/07/11 09:15:30;;;;;;;3.40;2.10;;;22.10;71.30;;;;;;5052076;28;20183;-86
2021/07/11 09:17:56;;;;;;;2.90;1.80;;;21.90;72.00;;;;;;5052250;28;20176;-85
2021/07/11 09:20:22;;;;;;;3.22;2.03;;;21.90;71.90;;;;;;5052153;28;20177;-85
2021/07/11 09:22:57;;;;;;;3.45;2.03;;;21.80;71.90;;;;;;5051818;28;20197;-85
2021/07/11 09:25:23;;;;;;;2.70;1.92;;;21.70;71.70;;;;;;5052059;28;20628;-86
2021/07/11 09:27:49;;;;;;;3.70;2.20;;;21.60;72.40;;;;;;5052016;28;20200;-86
2021/07/11 09:30:17;;;;;;;4.00;1.67;;;21.60;72.00;;;;;;5052098;28;20179;-85
2021/07/11 09:32:44;;;;;;;4.65;2.10;;;21.60;72.40;;;;;;5052949;28;20239;-86
2021/07/11 09:35:11;;;;;;;2.88;2.30;;;21.70;72.40;;;;;;5052257;28;20177;-86
2021/07/11 09:37:39;;;;;;;6.82;2.00;;;21.70;72.10;;;;;;5052404;28;20177;-86
2021/07/11 09:40:06;;;;;;;5.13;2.10;;;21.70;72.10;;;;;;5052691;28;20177;-86
2021/07/11 09:42:35;;;;;;;6.80;2.15;;;21.80;72.40;;;;;;5052279;28;20220;-86
2021/07/11 09:45:04;;;;;;;2.92;1.85;;;22.00;71.90;;;;;;5052597;28;20176;-87
2021/07/11 09:47:31;;;;;;;6.45;2.45;;;22.10;71.40;;;;;;5054642;28;20204;-86
2021/07/11 09:50:09;;;;;;;6.53;2.45;;;22.20;71.60;;;;;;5053480;28;20196;-87
2021/07/11 09:52:36;;;;;;;3.38;1.90;;;22.40;72.10;;;;;;5057075;28;20189;-86
2021/07/11 09:55:12;;;;;;;4.13;2.20;;;22.60;71.70;;;;;;5056365;28;20548;-86
2021/07/11 09:57:50;;;;;;;3.92;2.15;;;22.70;68.40;;;;;;5056460;28;20172;-86
2021/07/11 10:00:21;;;;;;;3.42;1.77;;;22.70;67.70;;;;;;5056574;28;20177;-85
2021/07/11 10:02:49;;;;;;;2.92;2.10;;;22.80;69.60;;;;;;5056578;28;20300;-85
2021/07/11 10:05:16;;;;;;;2.58;1.80;;;22.90;67.30;;;;;;5056249;28;20657;-86
2021/07/11 10:07:42;;;;;;;3.38;1.90;;;23.00;67.00;;;;;;5056415;28;20204;-86
2021/07/11 10:10:12;;;;;;;4.78;2.20;;;23.20;67.10;;;;;;5056163;28;20169;-86
2021/07/11 10:12:39;;;;;;;2.75;2.05;;;23.30;67.00;;;;;;5056182;28;20193;-86
2021/07/11 10:15:11;;;;;;;4.60;2.20;;;23.40;67.60;;;;;;5055839;28;20165;-86
2021/07/11 10:17:45;;;;;;;4.10;2.05;;;23.70;67.40;;;;;;5055716;28;20170;-86
2021/07/11 10:20:14;;;;;;;2.67;1.90;;;23.80;65.50;;;;;;5055689;28;20164;-87
2021/07/11 10:22:45;;;;;;;3.22;2.20;;;24.10;64.50;;;;;;5055631;28;20741;-86
2021/07/11 10:25:17;;;;;;;2.65;1.83;;;24.20;63.90;;;;;;5055956;28;20168;-86
2021/07/11 10:27:44;;;;;;;4.63;1.88;;;24.20;64.90;;;;;;5055723;28;20246;-87
2021/07/11 10:30:11;;;;;;;3.83;2.35;;;24.30;64.20;;;;;;5055910;28;20173;-86
2021/07/11 10:32:37;;;;;;;6.82;2.10;;;24.20;63.80;;;;;;5055639;28;20193;-86
2021/07/11 10:35:15;;;;;;;3.80;1.80;;;24.10;64.80;;;;;;5055681;28;20667;-86
2021/07/11 10:37:53;;;;;;;7.80;2.25;;;24.00;65.50;;;;;;5055926;28;20465;-85
2021/07/11 10:40:22;;;;;;;4.78;2.03;;;24.00;64.90;;;;;;5055962;28;20256;-87
2021/07/11 10:42:49;;;;;;;5.43;1.80;;;24.10;64.50;;;;;;5055340;28;20574;-87
2021/07/11 10:45:16;;;;;;;3.47;2.00;;;24.10;65.80;;;;;;5055474;28;20173;-87
2021/07/11 10:47:43;;;;;;;3.45;1.90;;;24.20;63.10;;;;;;5055501;28;20197;-87
2021/07/11 10:50:28;;;;;;;3.45;2.50;;;24.10;65.60;;;;;;5055163;28;20581;-87
2021/07/11 10:52:59;;;;;;;3.95;2.15;;;24.10;64.90;;;;;;5055059;28;20212;-87
2021/07/11 10:55:34;;;;;;;3.22;2.30;;;24.00;65.50;;;;;;5054842;28;20512;-87
2021/07/11 10:58:11;;;;;;;3.40;1.95;;;23.80;65.10;;;;;;5054954;28;20198;-88
2021/07/11 11:00:37;;;;;;;3.55;2.25;;;23.70;66.00;;;;;;5055053;28;20223;-85
2021/07/11 11:03:25;;;;;;;5.47;2.43;;;23.70;67.30;;;;;;5054370;28;20197;-85
2021/07/11 11:05:52;;;;;;;5.00;2.70;;;23.80;67.60;;;;;;5055309;28;20454;-86
2021/07/11 11:08:25;;;;;;;7.97;2.30;;;23.90;64.40;;;;;;5055127;28;20207;-85
2021/07/11 11:10:53;;;;;;;2.95;2.05;;;23.90;65.30;;;;;;5055295;28;20180;-85
2021/07/11 11:13:19;;;;;;;3.30;2.22;;;23.80;65.20;;;;;;5054997;28;20193;-85
2021/07/11 11:15:51;;;;;;;7.82;2.42;;;23.60;64.90;;;;;;5054887;28;20180;-86
2021/07/11 11:18:30;;;;;;;2.30;2.00;;;23.40;65.50;;;;;;5055701;28;20201;-84
2021/07/11 11:21:03;;;;;;;2.85;2.05;;;23.20;67.30;;;;;;5055200;28;20207;-85
2021/07/11 11:23:35;;;;;;;2.38;2.00;;;23.10;67.10;;;;;;5055600;28;20184;-84
2021/07/11 11:26:02;;;;;;;2.90;2.08;;;23.10;68.40;;;;;;5055125;28;20547;-84
2021/07/11 11:28:30;;;;;;;4.18;2.45;;;23.20;69.40;;;;;;5055205;28;20205;-84
2021/07/11 11:31:12;;;;;;;3.88;2.20;;;23.10;69.60;;;;;;5055089;28;20180;-85
2021/07/11 11:33:57;;;;;;;7.43;2.35;;;23.10;70.20;;;;;;5055616;28;20268;-85
2021/07/11 11:36:35;;;;;;;7.40;3.47;;;23.20;70.30;;;;;;5054750;28;20222;-84
2021/07/11 11:39:10;;;;;;;5.93;2.85;;;23.10;74.50;;;;;;5054299;28;20187;-85
2021/07/11 11:41:37;;;;;;;7.05;3.13;;;23.10;74.20;;;;;;5054413;28;20205;-84
2021/07/11 11:44:19;;;;;;;6.35;2.70;;;23.10;75.20;;;;;;5054398;28;20227;-85
2021/07/11 11:46:47;;;;;;;4.28;2.65;;;23.10;76.30;;;;;;5054351;28;20177;-85
2021/07/11 11:49:16;;;;;;;5.28;2.85;;;23.10;77.40;;;;;;5054540;28;20196;-85
2021/07/11 11:51:53;;;;;;;3.22;2.00;;;23.20;77.10;;;;;;5054133;28;20196;-85
2021/07/11 11:54:26;;;;;;;4.63;2.78;;;23.20;75.60;;;;;;5054198;28;20629;-85
2021/07/11 11:56:53;;;;;;;3.50;2.45;;;23.30;75.50;;;;;;5054377;28;20176;-85
2021/07/11 11:59:19;;;;;;;4.35;2.75;;;23.30;73.50;;;;;;5054585;28;20264;-85
2021/07/11 12:01:45;;;;;;;3.37;2.00;;;23.30;72.40;;;;;;5054012;28;20221;-84
2021/07/11 12:04:13;;;;;;;4.30;2.33;;;23.40;73.30;;;;;;5053501;28;20177;-84
2021/07/11 12:06:40;;;;;;;3.70;1.92;;;23.60;72.60;;;;;;5054275;28;20177;-84
2021/07/11 12:09:07;;;;;;;9.20;2.67;;;23.70;72.40;;;;;;5054314;28;20215;-84
2021/07/11 12:11:33;;;;;;;5.43;2.78;;;23.90;72.70;;;;;;5054169;28;20687;-84
2021/07/11 12:14:11;;;;;;;4.85;2.90;;;24.10;72.30;;;;;;5052599;28;20200;-84
2021/07/11 12:16:39;;;;;;;3.22;2.17;;;24.20;72.10;;;;;;5053975;28;20169;-84
2021/07/11 12:19:07;;;;;;;2.80;2.22;;;24.40;70.60;;;;;;5053912;28;20173;-84
2021/07/11 12:21:35;;;;;;;6.07;2.50;;;24.60;71.20;;;;;;5053779;28;20189;-84
2021/07/11 12:24:11;;;;;;;6.10;3.03;;;24.60;67.30;;;;;;5054266;28;20231;-84
2021/07/11 12:26:45;;;;;;;2.75;2.00;;;24.40;68.50;;;;;;5053325;28;20668;-84
2021/07/11 12:29:11;;;;;;;3.13;2.20;;;24.40;69.40;;;;;;5053278;28;20702;-83
2021/07/11 12:31:37;;;;;;;5.18;2.75;;;24.30;67.70;;;;;;5053356;28;20193;-84
2021/07/11 12:34:10;;;;;;;4.30;2.20;;;24.40;68.70;;;;;;5053426;28;20231;-83
2021/07/11 12:36:39;;;;;;;4.25;2.20;;;24.50;68.10;;;;;;5053259;28;20173;-83
2021/07/11 12:39:20;;;;;;;3.60;2.35;;;24.50;68.30;;;;;;5054122;28;20641;-83
2021/07/11 12:41:46;;;;;;;4.50;2.75;;;24.60;68.00;;;;;;5053403;28;20295;-83
2021/07/11 12:44:14;;;;;;;2.60;2.13;;;24.70;67.00;;;;;;5053255;28;20216;-83
2021/07/11 12:46:40;;;;;;;4.78;2.38;;;25.00;66.70;;;;;;5053490;28;20416;-83
2021/07/11 12:49:14;;;;;;;4.45;2.55;;;25.40;68.70;;;;;;5053290;28;20173;-83
2021/07/11 12:51:50;;;;;;;4.80;2.42;;;26.00;63.40;;;;;;5052972;28;20219;-83
2021/07/11 12:54:23;;;;;;;5.28;2.05;;;26.20;64.10;;;;;;5052605;28;20173;-83